sensor_id;sensor_type;location;lat;lon;timestamp;temperature;humidity
33460;DHT22;19795;53.160;6.612;2023-06-24T04:24:09;15.80;99.90
33460;DHT22;19795;53.160;6.612;2023-06-24T04:31:47;16.40;99.90
33460;DHT22;19795;53.160;6.612;2023-06-24T04:34:13;16.30;99.90
33460;DHT22;19795;53.160;6.612;2023-06-24T04:36:38;16.30;99.90
33460;DHT22;19795;53.160;6.612;2023-06-24T04:39:04;16.20;99.90
33460;DHT22;19795;53.160;6.612;2023-06-24T04:41:30;16.20;99.90
33460;DHT22;19795;53.160;6.612;2023-06-24T04:43:57;16.20;99.90
33460;DHT22;19795;53.160;6.612;2023-06-24T04:46:23;16.30;99.90
33460;DHT22;19795;53.160;6.612;2023-06-24T04:48:49;16.40;99.90
33460;DHT22;19795;53.160;6.612;2023-06-24T04:51:15;16.40;99.90
33460;DHT22;19795;53.160;6.612;2023-06-24T04:53:40;16.50;99.90
33460;DHT22;19795;53.160;6.612;2023-06-24T04:56:06;16.70;99.90
33460;DHT22;19795;53.160;6.612;2023-06-24T04:58:32;16.80;99.90
33460;DHT22;19795;53.160;6.612;2023-06-24T05:00:58;16.90;99.90
33460;DHT22;19795;53.160;6.612;2023-06-24T05:03:24;17.10;99.90
33460;DHT22;19795;53.160;6.612;2023-06-24T05:05:50;17.00;99.90
33460;DHT22;19795;53.160;6.612;2023-06-24T05:08:15;17.10;99.90
33460;DHT22;19795;53.160;6.612;2023-06-24T05:10:41;17.10;99.90
33460;DHT22;19795;53.160;6.612;2023-06-24T05:13:07;17.50;99.90
33460;DHT22;19795;53.160;6.612;2023-06-24T05:15:32;18.20;99.90
33460;DHT22;19795;53.160;6.612;2023-06-24T05:17:58;19.00;99.90
33460;DHT22;19795;53.160;6.612;2023-06-24T05:20:24;19.70;99.90
33460;DHT22;19795;53.160;6.612;2023-06-24T05:22:49;20.40;99.90
33460;DHT22;19795;53.160;6.612;2023-06-24T05:25:15;20.60;99.90
33460;DHT22;19795;53.160;6.612;2023-06-24T05:27:41;20.90;99.90
33460;DHT22;19795;53.160;6.612;2023-06-24T05:30:08;21.10;99.90
33460;DHT22;19795;53.160;6.612;2023-06-24T05:32:34;21.50;99.90
33460;DHT22;19795;53.160;6.612;2023-06-24T05:34:59;21.70;99.90
33460;DHT22;19795;53.160;6.612;2023-06-24T05:37:25;21.90;99.90
33460;DHT22;19795;53.160;6.612;2023-06-24T05:39:51;22.30;99.90
33460;DHT22;19795;53.160;6.612;2023-06-24T05:42:17;23.10;99.90
33460;DHT22;19795;53.160;6.612;2023-06-24T05:44:43;23.50;99.90
33460;DHT22;19795;53.160;6.612;2023-06-24T05:47:08;24.00;99.90
33460;DHT22;19795;53.160;6.612;2023-06-24T05:49:34;23.60;99.90
33460;DHT22;19795;53.160;6.612;2023-06-24T05:51:59;23.70;99.90
33460;DHT22;19795;53.160;6.612;2023-06-24T05:54:25;24.00;99.90
33460;DHT22;19795;53.160;6.612;2023-06-24T05:56:51;24.40;99.90
33460;DHT22;19795;53.160;6.612;2023-06-24T05:59:16;24.90;99.90
33460;DHT22;19795;53.160;6.612;2023-06-24T06:01:42;25.00;99.90
33460;DHT22;19795;53.160;6.612;2023-06-24T06:04:08;25.20;99.90
33460;DHT22;19795;53.160;6.612;2023-06-24T06:06:33;25.20;99.90
33460;DHT22;19795;53.160;6.612;2023-06-24T06:08:59;25.80;99.90
33460;DHT22;19795;53.160;6.612;2023-06-24T06:11:25;25.60;99.90
33460;DHT22;19795;53.160;6.612;2023-06-24T06:13:51;26.30;99.90
33460;DHT22;19795;53.160;6.612;2023-06-24T06:16:18;26.00;99.90
33460;DHT22;19795;53.160;6.612;2023-06-24T06:18:43;26.20;99.90
33460;DHT22;19795;53.160;6.612;2023-06-24T06:21:09;26.20;99.90
33460;DHT22;19795;53.160;6.612;2023-06-24T06:23:35;26.70;99.90
33460;DHT22;19795;53.160;6.612;2023-06-24T06:26:00;27.70;99.90
33460;DHT22;19795;53.160;6.612;2023-06-24T06:28:26;28.70;99.90
33460;DHT22;19795;53.160;6.612;2023-06-24T06:30:52;28.80;99.90
33460;DHT22;19795;53.160;6.612;2023-06-24T06:33:18;29.10;99.90
33460;DHT22;19795;53.160;6.612;2023-06-24T06:35:43;29.20;99.90
33460;DHT22;19795;53.160;6.612;2023-06-24T06:38:10;28.70;99.90
33460;DHT22;19795;53.160;6.612;2023-06-24T06:40:35;27.90;99.90
33460;DHT22;19795;53.160;6.612;2023-06-24T06:43:01;26.70;99.90
33460;DHT22;19795;53.160;6.612;2023-06-24T06:45:27;26.10;99.90
33460;DHT22;19795;53.160;6.612;2023-06-24T06:47:52;25.80;99.90
33460;DHT22;19795;53.160;6.612;2023-06-24T06:50:18;25.40;99.90
33460;DHT22;19795;53.160;6.612;2023-06-24T06:52:44;25.20;99.90
33460;DHT22;19795;53.160;6.612;2023-06-24T06:55:10;25.00;99.90
33460;DHT22;19795;53.160;6.612;2023-06-24T06:57:35;25.00;99.90
33460;DHT22;19795;53.160;6.612;2023-06-24T07:00:02;25.20;99.90
33460;DHT22;19795;53.160;6.612;2023-06-24T07:02:27;25.60;99.90
33460;DHT22;19795;53.160;6.612;2023-06-24T07:04:56;25.80;99.90
33460;DHT22;19795;53.160;6.612;2023-06-24T07:07:21;26.10;99.90
33460;DHT22;19795;53.160;6.612;2023-06-24T07:09:47;26.00;99.90
33460;DHT22;19795;53.160;6.612;2023-06-24T07:12:13;26.20;99.90
33460;DHT22;19795;53.160;6.612;2023-06-24T07:14:39;26.40;99.90
33460;DHT22;19795;53.160;6.612;2023-06-24T07:17:05;26.60;99.90
33460;DHT22;19795;53.160;6.612;2023-06-24T07:19:31;26.40;99.90
33460;DHT22;19795;53.160;6.612;2023-06-24T07:21:56;26.40;99.90
33460;DHT22;19795;53.160;6.612;2023-06-24T07:24:22;26.20;99.90
33460;DHT22;19795;53.160;6.612;2023-06-24T07:26:47;26.10;99.90
33460;DHT22;19795;53.160;6.612;2023-06-24T07:29:13;26.00;99.90
33460;DHT22;19795;53.160;6.612;2023-06-24T07:31:39;26.10;99.90
33460;DHT22;19795;53.160;6.612;2023-06-24T07:34:05;26.20;99.90
33460;DHT22;19795;53.160;6.612;2023-06-24T07:36:31;26.20;99.90
33460;DHT22;19795;53.160;6.612;2023-06-24T07:38:56;26.20;99.90
33460;DHT22;19795;53.160;6.612;2023-06-24T07:41:22;26.30;99.90
33460;DHT22;19795;53.160;6.612;2023-06-24T07:43:48;26.30;99.90
33460;DHT22;19795;53.160;6.612;2023-06-24T07:46:13;26.80;99.90
33460;DHT22;19795;53.160;6.612;2023-06-24T07:48:39;27.50;99.90
33460;DHT22;19795;53.160;6.612;2023-06-24T07:51:05;28.00;99.90
33460;DHT22;19795;53.160;6.612;2023-06-24T07:53:31;28.30;99.90
33460;DHT22;19795;53.160;6.612;2023-06-24T07:55:58;28.70;99.90
33460;DHT22;19795;53.160;6.612;2023-06-24T07:58:24;28.60;99.90
33460;DHT22;19795;53.160;6.612;2023-06-24T08:00:50;28.40;99.90
33460;DHT22;19795;53.160;6.612;2023-06-24T08:03:16;28.70;99.90
33460;DHT22;19795;53.160;6.612;2023-06-24T08:05:42;28.50;99.90
33460;DHT22;19795;53.160;6.612;2023-06-24T08:08:08;28.30;99.90
33460;DHT22;19795;53.160;6.612;2023-06-24T08:10:34;28.30;99.90
33460;DHT22;19795;53.160;6.612;2023-06-24T08:13:00;28.50;99.90
33460;DHT22;19795;53.160;6.612;2023-06-24T08:15:26;28.60;99.90
33460;DHT22;19795;53.160;6.612;2023-06-24T08:17:52;28.80;99.90
33460;DHT22;19795;53.160;6.612;2023-06-24T08:20:22;29.20;99.90
33460;DHT22;19795;53.160;6.612;2023-06-24T08:22:49;29.20;99.90
33460;DHT22;19795;53.160;6.612;2023-06-24T08:25:14;29.40;99.90
33460;DHT22;19795;53.160;6.612;2023-06-24T08:27:40;29.40;99.90
33460;DHT22;19795;53.160;6.612;2023-06-24T08:30:07;29.10;99.90
33460;DHT22;19795;53.160;6.612;2023-06-24T08:32:33;29.10;99.90
33460;DHT22;19795;53.160;6.612;2023-06-24T08:34:59;29.10;99.90
33460;DHT22;19795;53.160;6.612;2023-06-24T08:37:25;29.30;99.90
33460;DHT22;19795;53.160;6.612;2023-06-24T08:39:51;29.70;99.90
33460;DHT22;19795;53.160;6.612;2023-06-24T08:42:17;29.70;99.90
33460;DHT22;19795;53.160;6.612;2023-06-24T08:44:42;29.60;99.60
33460;DHT22;19795;53.160;6.612;2023-06-24T08:47:08;29.20;99.90
33460;DHT22;19795;53.160;6.612;2023-06-24T08:49:39;29.20;99.80
33460;DHT22;19795;53.160;6.612;2023-06-24T08:52:12;29.00;99.90
33460;DHT22;19795;53.160;6.612;2023-06-24T08:54:40;30.10;99.90
33460;DHT22;19795;53.160;6.612;2023-06-24T08:57:06;31.00;97.70
33460;DHT22;19795;53.160;6.612;2023-06-24T08:59:34;31.20;97.30
33460;DHT22;19795;53.160;6.612;2023-06-24T09:02:01;31.10;97.50
33460;DHT22;19795;53.160;6.612;2023-06-24T09:04:27;31.40;96.40
33460;DHT22;19795;53.160;6.612;2023-06-24T09:06:53;30.90;97.20
33460;DHT22;19795;53.160;6.612;2023-06-24T09:09:19;30.70;96.60
33460;DHT22;19795;53.160;6.612;2023-06-24T09:11:56;30.30;96.20
33460;DHT22;19795;53.160;6.612;2023-06-24T09:14:28;29.90;96.80
33460;DHT22;19795;53.160;6.612;2023-06-24T09:16:56;29.90;98.10
33460;DHT22;19795;53.160;6.612;2023-06-24T09:19:26;29.70;99.90
33460;DHT22;19795;53.160;6.612;2023-06-24T09:22:02;29.60;97.20
33460;DHT22;19795;53.160;6.612;2023-06-24T09:24:30;29.80;98.80
33460;DHT22;19795;53.160;6.612;2023-06-24T09:26:56;29.70;98.40
33460;DHT22;19795;53.160;6.612;2023-06-24T09:29:32;29.30;98.50
33460;DHT22;19795;53.160;6.612;2023-06-24T09:31:58;29.10;99.90
33460;DHT22;19795;53.160;6.612;2023-06-24T09:34:28;29.40;98.40
33460;DHT22;19795;53.160;6.612;2023-06-24T09:36:56;30.70;97.90
33460;DHT22;19795;53.160;6.612;2023-06-24T09:39:23;31.40;96.80
33460;DHT22;19795;53.160;6.612;2023-06-24T09:41:56;32.40;95.50
33460;DHT22;19795;53.160;6.612;2023-06-24T09:44:23;32.60;95.00
33460;DHT22;19795;53.160;6.612;2023-06-24T09:46:49;32.90;94.60
33460;DHT22;19795;53.160;6.612;2023-06-24T09:49:14;32.30;93.30
33460;DHT22;19795;53.160;6.612;2023-06-24T09:51:46;32.10;94.80
33460;DHT22;19795;53.160;6.612;2023-06-24T09:54:14;32.70;94.70
33460;DHT22;19795;53.160;6.612;2023-06-24T09:56:43;32.50;94.00
33460;DHT22;19795;53.160;6.612;2023-06-24T09:59:12;32.70;93.20
33460;DHT22;19795;53.160;6.612;2023-06-24T10:01:44;32.70;94.60
33460;DHT22;19795;53.160;6.612;2023-06-24T10:04:20;32.00;95.20
33460;DHT22;19795;53.160;6.612;2023-06-24T10:06:49;32.40;94.60
33460;DHT22;19795;53.160;6.612;2023-06-24T10:09:15;32.30;92.80
33460;DHT22;19795;53.160;6.612;2023-06-24T10:11:45;32.20;93.70
33460;DHT22;19795;53.160;6.612;2023-06-24T10:14:11;31.50;93.50
33460;DHT22;19795;53.160;6.612;2023-06-24T10:16:37;31.80;93.00
33460;DHT22;19795;53.160;6.612;2023-06-24T10:19:03;31.80;93.30
33460;DHT22;19795;53.160;6.612;2023-06-24T10:21:50;32.40;93.30
33460;DHT22;19795;53.160;6.612;2023-06-24T10:24:32;31.70;91.70
33460;DHT22;19795;53.160;6.612;2023-06-24T10:27:08;30.00;94.70
33460;DHT22;19795;53.160;6.612;2023-06-24T10:29:38;30.50;95.60
33460;DHT22;19795;53.160;6.612;2023-06-24T10:32:08;31.40;94.20
33460;DHT22;19795;53.160;6.612;2023-06-24T10:37:25;31.10;92.00
33460;DHT22;19795;53.160;6.612;2023-06-24T10:40:09;30.60;94.90
33460;DHT22;19795;53.160;6.612;2023-06-24T10:42:38;31.00;93.50
33460;DHT22;19795;53.160;6.612;2023-06-24T10:47:50;33.80;91.50
33460;DHT22;19795;53.160;6.612;2023-06-24T10:50:21;34.40;91.80
33460;DHT22;19795;53.160;6.612;2023-06-24T10:52:50;34.60;90.40
33460;DHT22;19795;53.160;6.612;2023-06-24T10:55:22;32.70;91.60
33460;DHT22;19795;53.160;6.612;2023-06-24T10:57:49;32.00;91.10
33460;DHT22;19795;53.160;6.612;2023-06-24T11:00:15;30.70;92.40
33460;DHT22;19795;53.160;6.612;2023-06-24T11:02:41;30.10;94.80
33460;DHT22;19795;53.160;6.612;2023-06-24T11:05:07;29.70;94.70
33460;DHT22;19795;53.160;6.612;2023-06-24T11:07:35;30.40;91.80
33460;DHT22;19795;53.160;6.612;2023-06-24T11:10:06;31.10;92.20
33460;DHT22;19795;53.160;6.612;2023-06-24T11:12:34;30.80;92.20
33460;DHT22;19795;53.160;6.612;2023-06-24T11:15:05;30.40;94.50
33460;DHT22;19795;53.160;6.612;2023-06-24T11:17:32;29.40;93.60
33460;DHT22;19795;53.160;6.612;2023-06-24T11:19:58;28.40;95.60
33460;DHT22;19795;53.160;6.612;2023-06-24T11:22:24;28.80;97.70
33460;DHT22;19795;53.160;6.612;2023-06-24T11:24:52;30.80;94.00
33460;DHT22;19795;53.160;6.612;2023-06-24T11:29:52;30.60;94.10
33460;DHT22;19795;53.160;6.612;2023-06-24T11:32:18;32.00;92.10
33460;DHT22;19795;53.160;6.612;2023-06-24T11:34:45;33.80;92.90
33460;DHT22;19795;53.160;6.612;2023-06-24T11:37:12;33.20;91.60
33460;DHT22;19795;53.160;6.612;2023-06-24T11:39:37;32.20;92.00
33460;DHT22;19795;53.160;6.612;2023-06-24T11:42:06;31.70;91.00
33460;DHT22;19795;53.160;6.612;2023-06-24T11:44:32;31.60;92.60
33460;DHT22;19795;53.160;6.612;2023-06-24T11:47:05;32.30;92.10
33460;DHT22;19795;53.160;6.612;2023-06-24T11:49:31;33.20;93.20
33460;DHT22;19795;53.160;6.612;2023-06-24T11:51:57;32.30;91.40
33460;DHT22;19795;53.160;6.612;2023-06-24T11:54:22;30.20;92.90
33460;DHT22;19795;53.160;6.612;2023-06-24T11:56:52;30.40;93.70
33460;DHT22;19795;53.160;6.612;2023-06-24T11:59:27;30.20;94.70
33460;DHT22;19795;53.160;6.612;2023-06-24T12:01:57;28.90;96.30
33460;DHT22;19795;53.160;6.612;2023-06-24T12:04:33;28.90;97.00
33460;DHT22;19795;53.160;6.612;2023-06-24T12:07:00;28.30;97.70
33460;DHT22;19795;53.160;6.612;2023-06-24T12:09:26;28.20;98.30
33460;DHT22;19795;53.160;6.612;2023-06-24T12:11:52;28.30;97.80
33460;DHT22;19795;53.160;6.612;2023-06-24T12:14:18;28.60;97.10
33460;DHT22;19795;53.160;6.612;2023-06-24T12:16:44;29.30;97.40
33460;DHT22;19795;53.160;6.612;2023-06-24T12:19:10;28.80;94.90
33460;DHT22;19795;53.160;6.612;2023-06-24T12:21:37;28.80;98.00
33460;DHT22;19795;53.160;6.612;2023-06-24T12:24:03;29.90;94.90
33460;DHT22;19795;53.160;6.612;2023-06-24T12:26:30;29.60;94.30
33460;DHT22;19795;53.160;6.612;2023-06-24T12:28:56;29.60;97.40
33460;DHT22;19795;53.160;6.612;2023-06-24T12:31:23;31.40;95.00
33460;DHT22;19795;53.160;6.612;2023-06-24T12:33:48;32.10;91.50
33460;DHT22;19795;53.160;6.612;2023-06-24T12:36:14;31.60;92.40
33460;DHT22;19795;53.160;6.612;2023-06-24T12:38:40;31.20;91.80
33460;DHT22;19795;53.160;6.612;2023-06-24T12:41:06;29.90;92.90
33460;DHT22;19795;53.160;6.612;2023-06-24T12:43:32;31.00;93.80
33460;DHT22;19795;53.160;6.612;2023-06-24T12:45:58;32.40;91.50
33460;DHT22;19795;53.160;6.612;2023-06-24T12:48:23;32.90;90.90
33460;DHT22;19795;53.160;6.612;2023-06-24T12:50:49;33.90;91.90
33460;DHT22;19795;53.160;6.612;2023-06-24T12:53:21;34.40;90.50
33460;DHT22;19795;53.160;6.612;2023-06-24T12:55:48;34.50;91.00
33460;DHT22;19795;53.160;6.612;2023-06-24T12:58:19;33.80;89.70
33460;DHT22;19795;53.160;6.612;2023-06-24T13:00:44;33.50;90.00
33460;DHT22;19795;53.160;6.612;2023-06-24T13:03:10;32.80;89.70
33460;DHT22;19795;53.160;6.612;2023-06-24T13:05:36;32.50;90.60
33460;DHT22;19795;53.160;6.612;2023-06-24T13:08:01;31.60;90.40
33460;DHT22;19795;53.160;6.612;2023-06-24T13:10:27;30.00;92.40
33460;DHT22;19795;53.160;6.612;2023-06-24T13:12:52;29.00;94.80
33460;DHT22;19795;53.160;6.612;2023-06-24T13:15:19;29.10;93.30
33460;DHT22;19795;53.160;6.612;2023-06-24T13:17:44;29.50;93.30
33460;DHT22;19795;53.160;6.612;2023-06-24T13:20:10;30.80;94.20
33460;DHT22;19795;53.160;6.612;2023-06-24T13:22:36;32.10;92.20
33460;DHT22;19795;53.160;6.612;2023-06-24T13:25:02;32.10;90.90
33460;DHT22;19795;53.160;6.612;2023-06-24T13:27:27;32.20;92.00
33460;DHT22;19795;53.160;6.612;2023-06-24T13:29:54;32.60;90.80
33460;DHT22;19795;53.160;6.612;2023-06-24T13:32:19;33.40;92.00
33460;DHT22;19795;53.160;6.612;2023-06-24T13:34:45;31.90;91.50
33460;DHT22;19795;53.160;6.612;2023-06-24T13:37:11;30.20;92.90
33460;DHT22;19795;53.160;6.612;2023-06-24T13:39:36;29.20;93.50
33460;DHT22;19795;53.160;6.612;2023-06-24T13:42:02;29.00;93.70
33460;DHT22;19795;53.160;6.612;2023-06-24T13:44:28;29.30;93.80
33460;DHT22;19795;53.160;6.612;2023-06-24T13:46:53;29.40;94.10
33460;DHT22;19795;53.160;6.612;2023-06-24T13:49:19;29.60;93.90
33460;DHT22;19795;53.160;6.612;2023-06-24T13:51:45;29.90;94.00
33460;DHT22;19795;53.160;6.612;2023-06-24T13:54:11;29.90;95.30
33460;DHT22;19795;53.160;6.612;2023-06-24T13:56:37;29.80;95.60
33460;DHT22;19795;53.160;6.612;2023-06-24T13:59:04;29.80;93.40
33460;DHT22;19795;53.160;6.612;2023-06-24T14:01:30;29.70;95.20
33460;DHT22;19795;53.160;6.612;2023-06-24T14:03:57;30.40;96.10
33460;DHT22;19795;53.160;6.612;2023-06-24T14:06:24;30.70;93.00
33460;DHT22;19795;53.160;6.612;2023-06-24T14:08:50;30.30;95.00
33460;DHT22;19795;53.160;6.612;2023-06-24T14:11:17;30.60;92.50
33460;DHT22;19795;53.160;6.612;2023-06-24T14:13:43;29.40;94.60
33460;DHT22;19795;53.160;6.612;2023-06-24T14:16:09;29.50;95.40
33460;DHT22;19795;53.160;6.612;2023-06-24T14:18:36;29.20;94.50
33460;DHT22;19795;53.160;6.612;2023-06-24T14:21:04;28.30;95.50
33460;DHT22;19795;53.160;6.612;2023-06-24T14:23:30;28.10;96.60
33460;DHT22;19795;53.160;6.612;2023-06-24T14:25:57;28.00;96.90
33460;DHT22;19795;53.160;6.612;2023-06-24T14:28:23;28.30;96.40
33460;DHT22;19795;53.160;6.612;2023-06-24T14:30:48;28.60;96.90
33460;DHT22;19795;53.160;6.612;2023-06-24T14:33:14;28.50;96.40
33460;DHT22;19795;53.160;6.612;2023-06-24T14:35:41;28.60;95.90
33460;DHT22;19795;53.160;6.612;2023-06-24T14:38:07;28.90;94.90
33460;DHT22;19795;53.160;6.612;2023-06-24T14:40:33;30.60;94.00
33460;DHT22;19795;53.160;6.612;2023-06-24T14:42:59;30.80;92.80
33460;DHT22;19795;53.160;6.612;2023-06-24T14:45:25;30.90;94.00
33460;DHT22;19795;53.160;6.612;2023-06-24T14:47:51;30.30;93.60
33460;DHT22;19795;53.160;6.612;2023-06-24T14:50:17;30.10;93.50
33460;DHT22;19795;53.160;6.612;2023-06-24T14:52:42;29.70;94.40
33460;DHT22;19795;53.160;6.612;2023-06-24T14:55:08;29.80;96.40
33460;DHT22;19795;53.160;6.612;2023-06-24T14:57:35;29.50;96.20
33460;DHT22;19795;53.160;6.612;2023-06-24T15:00:01;29.20;94.40
33460;DHT22;19795;53.160;6.612;2023-06-24T15:02:26;29.40;94.30
33460;DHT22;19795;53.160;6.612;2023-06-24T15:04:52;29.00;94.80
33460;DHT22;19795;53.160;6.612;2023-06-24T15:07:18;28.70;97.80
33460;DHT22;19795;53.160;6.612;2023-06-24T15:09:44;28.90;96.70
33460;DHT22;19795;53.160;6.612;2023-06-24T15:12:10;28.40;98.60
33460;DHT22;19795;53.160;6.612;2023-06-24T15:14:36;28.40;97.40
33460;DHT22;19795;53.160;6.612;2023-06-24T15:17:01;27.90;97.00
33460;DHT22;19795;53.160;6.612;2023-06-24T15:19:27;27.60;98.00
33460;DHT22;19795;53.160;6.612;2023-06-24T15:21:53;27.40;98.10
33460;DHT22;19795;53.160;6.612;2023-06-24T15:24:19;27.60;99.80
33460;DHT22;19795;53.160;6.612;2023-06-24T15:26:44;27.50;98.60
33460;DHT22;19795;53.160;6.612;2023-06-24T15:29:10;27.20;98.90
33460;DHT22;19795;53.160;6.612;2023-06-24T15:31:35;27.20;99.70
33460;DHT22;19795;53.160;6.612;2023-06-24T15:34:01;27.60;99.90
33460;DHT22;19795;53.160;6.612;2023-06-24T15:36:27;27.50;99.90
33460;DHT22;19795;53.160;6.612;2023-06-24T15:38:54;27.50;99.10
33460;DHT22;19795;53.160;6.612;2023-06-24T15:41:20;27.50;99.40
33460;DHT22;19795;53.160;6.612;2023-06-24T15:43:46;27.50;99.90
33460;DHT22;19795;53.160;6.612;2023-06-24T15:46:12;27.10;99.90
33460;DHT22;19795;53.160;6.612;2023-06-24T15:48:37;27.10;99.90
33460;DHT22;19795;53.160;6.612;2023-06-24T15:51:03;26.90;99.90
33460;DHT22;19795;53.160;6.612;2023-06-24T15:53:29;26.90;99.90
33460;DHT22;19795;53.160;6.612;2023-06-24T15:55:55;26.80;99.90
33460;DHT22;19795;53.160;6.612;2023-06-24T15:58:21;26.80;99.90
33460;DHT22;19795;53.160;6.612;2023-06-24T16:00:46;26.70;99.90
33460;DHT22;19795;53.160;6.612;2023-06-24T16:03:12;26.40;99.90
33460;DHT22;19795;53.160;6.612;2023-06-24T16:05:38;26.40;99.90
33460;DHT22;19795;53.160;6.612;2023-06-24T16:08:04;26.30;99.90
33460;DHT22;19795;53.160;6.612;2023-06-24T16:10:30;26.30;99.90
33460;DHT22;19795;53.160;6.612;2023-06-24T16:12:56;26.40;99.90
33460;DHT22;19795;53.160;6.612;2023-06-24T16:15:22;26.40;99.90
33460;DHT22;19795;53.160;6.612;2023-06-24T16:17:47;26.20;99.90
33460;DHT22;19795;53.160;6.612;2023-06-24T16:20:13;26.40;99.90
33460;DHT22;19795;53.160;6.612;2023-06-24T16:22:45;26.80;99.90
33460;DHT22;19795;53.160;6.612;2023-06-24T16:25:11;27.10;99.90
33460;DHT22;19795;53.160;6.612;2023-06-24T16:27:37;26.70;99.90
33460;DHT22;19795;53.160;6.612;2023-06-24T16:30:03;26.70;99.90
33460;DHT22;19795;53.160;6.612;2023-06-24T16:32:29;26.60;99.90
33460;DHT22;19795;53.160;6.612;2023-06-24T16:34:55;26.40;99.90
33460;DHT22;19795;53.160;6.612;2023-06-24T16:37:20;26.30;99.90
33460;DHT22;19795;53.160;6.612;2023-06-24T16:39:46;26.30;99.90
33460;DHT22;19795;53.160;6.612;2023-06-24T16:42:11;26.70;99.90
33460;DHT22;19795;53.160;6.612;2023-06-24T16:44:37;26.70;99.90
33460;DHT22;19795;53.160;6.612;2023-06-24T16:47:06;27.10;99.90
33460;DHT22;19795;53.160;6.612;2023-06-24T16:49:32;27.50;99.90
33460;DHT22;19795;53.160;6.612;2023-06-24T16:51:58;27.50;99.90
33460;DHT22;19795;53.160;6.612;2023-06-24T16:54:24;27.20;99.90
33460;DHT22;19795;53.160;6.612;2023-06-24T16:56:51;27.00;99.90
33460;DHT22;19795;53.160;6.612;2023-06-24T16:59:17;26.40;99.90
33460;DHT22;19795;53.160;6.612;2023-06-24T17:01:43;26.10;99.90
33460;DHT22;19795;53.160;6.612;2023-06-24T17:04:09;25.80;99.90
33460;DHT22;19795;53.160;6.612;2023-06-24T17:06:34;26.80;99.90
33460;DHT22;19795;53.160;6.612;2023-06-24T17:09:00;27.70;99.90
33460;DHT22;19795;53.160;6.612;2023-06-24T17:11:26;27.70;99.40
33460;DHT22;19795;53.160;6.612;2023-06-24T17:13:52;27.80;98.80
33460;DHT22;19795;53.160;6.612;2023-06-24T17:16:17;27.50;99.40
33460;DHT22;19795;53.160;6.612;2023-06-24T17:18:43;27.00;99.90
33460;DHT22;19795;53.160;6.612;2023-06-24T17:21:09;26.50;99.90
33460;DHT22;19795;53.160;6.612;2023-06-24T17:23:36;26.80;99.90
33460;DHT22;19795;53.160;6.612;2023-06-24T17:26:02;27.10;99.60
33460;DHT22;19795;53.160;6.612;2023-06-24T17:28:27;27.70;99.30
33460;DHT22;19795;53.160;6.612;2023-06-24T17:30:53;28.40;98.00
33460;DHT22;19795;53.160;6.612;2023-06-24T17:33:19;28.00;98.10
33460;DHT22;19795;53.160;6.612;2023-06-24T17:35:44;27.50;98.90
33460;DHT22;19795;53.160;6.612;2023-06-24T17:38:10;27.80;98.70
33460;DHT22;19795;53.160;6.612;2023-06-24T17:40:36;28.00;98.50
33460;DHT22;19795;53.160;6.612;2023-06-24T17:43:03;27.80;98.80
33460;DHT22;19795;53.160;6.612;2023-06-24T17:45:28;27.70;98.40
33460;DHT22;19795;53.160;6.612;2023-06-24T17:47:54;27.30;99.10
33460;DHT22;19795;53.160;6.612;2023-06-24T17:50:21;27.30;99.00
33460;DHT22;19795;53.160;6.612;2023-06-24T17:52:50;27.40;98.70
33460;DHT22;19795;53.160;6.612;2023-06-24T17:55:18;27.70;99.20
33460;DHT22;19795;53.160;6.612;2023-06-24T17:57:44;28.10;98.20
33460;DHT22;19795;53.160;6.612;2023-06-24T18:00:11;27.60;98.90
33460;DHT22;19795;53.160;6.612;2023-06-24T18:02:37;27.20;99.20
33460;DHT22;19795;53.160;6.612;2023-06-24T18:05:02;27.30;99.00
33460;DHT22;19795;53.160;6.612;2023-06-24T18:07:28;27.00;99.50
33460;DHT22;19795;53.160;6.612;2023-06-24T18:09:55;26.60;99.90
33460;DHT22;19795;53.160;6.612;2023-06-24T18:12:23;27.00;99.50
33460;DHT22;19795;53.160;6.612;2023-06-24T18:14:49;27.20;99.00
33460;DHT22;19795;53.160;6.612;2023-06-24T18:17:15;27.00;99.00
33460;DHT22;19795;53.160;6.612;2023-06-24T18:19:40;26.80;99.70
33460;DHT22;19795;53.160;6.612;2023-06-24T18:22:09;26.60;99.90
33460;DHT22;19795;53.160;6.612;2023-06-24T18:24:34;26.70;99.90
33460;DHT22;19795;53.160;6.612;2023-06-24T18:27:01;26.50;99.90
33460;DHT22;19795;53.160;6.612;2023-06-24T18:29:27;26.30;99.90
33460;DHT22;19795;53.160;6.612;2023-06-24T18:31:53;26.30;99.90
33460;DHT22;19795;53.160;6.612;2023-06-24T18:34:19;26.30;99.90
33460;DHT22;19795;53.160;6.612;2023-06-24T18:36:44;26.00;99.90
33460;DHT22;19795;53.160;6.612;2023-06-24T18:39:10;25.60;99.90
33460;DHT22;19795;53.160;6.612;2023-06-24T18:41:36;25.30;99.90
33460;DHT22;19795;53.160;6.612;2023-06-24T18:44:02;25.30;99.90
33460;DHT22;19795;53.160;6.612;2023-06-24T18:46:30;25.20;99.90
33460;DHT22;19795;53.160;6.612;2023-06-24T18:48:56;24.90;99.90
33460;DHT22;19795;53.160;6.612;2023-06-24T18:51:22;24.60;99.90
33460;DHT22;19795;53.160;6.612;2023-06-24T18:53:48;24.50;99.90
33460;DHT22;19795;53.160;6.612;2023-06-24T18:56:13;24.00;99.90
33460;DHT22;19795;53.160;6.612;2023-06-24T18:58:39;23.50;99.90
33460;DHT22;19795;53.160;6.612;2023-06-24T19:01:04;23.10;99.90
33460;DHT22;19795;53.160;6.612;2023-06-24T19:03:30;22.90;99.90
33460;DHT22;19795;53.160;6.612;2023-06-24T19:05:57;22.80;99.90
33460;DHT22;19795;53.160;6.612;2023-06-24T19:08:22;22.60;99.90
33460;DHT22;19795;53.160;6.612;2023-06-24T19:10:48;22.50;99.90
33460;DHT22;19795;53.160;6.612;2023-06-24T19:13:14;22.40;99.90
33460;DHT22;19795;53.160;6.612;2023-06-24T19:15:39;22.40;99.90
33460;DHT22;19795;53.160;6.612;2023-06-24T19:18:06;22.30;99.90
33460;DHT22;19795;53.160;6.612;2023-06-24T19:20:32;22.10;99.90
33460;DHT22;19795;53.160;6.612;2023-06-24T19:22:58;22.10;99.90
33460;DHT22;19795;53.160;6.612;2023-06-24T19:25:23;22.00;99.90
33460;DHT22;19795;53.160;6.612;2023-06-24T19:27:49;21.90;99.90
33460;DHT22;19795;53.160;6.612;2023-06-24T19:30:15;21.80;99.90
33460;DHT22;19795;53.160;6.612;2023-06-24T19:32:40;21.70;99.90
33460;DHT22;19795;53.160;6.612;2023-06-24T19:35:08;21.60;99.90
33460;DHT22;19795;53.160;6.612;2023-06-24T19:37:34;21.60;99.90
33460;DHT22;19795;53.160;6.612;2023-06-24T19:40:15;21.50;99.90
33460;DHT22;19795;53.160;6.612;2023-06-24T19:42:43;21.40;99.90
33460;DHT22;19795;53.160;6.612;2023-06-24T19:45:09;21.40;99.90
33460;DHT22;19795;53.160;6.612;2023-06-24T19:47:35;21.20;99.90
33460;DHT22;19795;53.160;6.612;2023-06-24T19:50:00;21.20;99.90
33460;DHT22;19795;53.160;6.612;2023-06-24T19:52:26;21.10;99.90
33460;DHT22;19795;53.160;6.612;2023-06-24T19:54:52;21.10;99.90
33460;DHT22;19795;53.160;6.612;2023-06-24T19:57:19;20.20;99.90
33460;DHT22;19795;53.160;6.612;2023-06-24T19:59:44;20.90;99.90
33460;DHT22;19795;53.160;6.612;2023-06-24T20:02:10;20.80;99.90